createdAt,value
2023-03-24T00:02:16.602Z,100100.83
2023-03-24T00:04:47.326Z,100095.88
2023-03-24T00:07:16.207Z,100089.02
2023-03-24T00:09:46.337Z,100090.04
2023-03-24T00:12:14.613Z,100093.41
2023-03-24T00:14:48.328Z,100091.05
2023-03-24T00:17:17.699Z,100093.07
2023-03-24T00:19:46.509Z,100084.38
2023-03-24T00:23:33.150Z,100076.96
2023-03-24T00:26:38.527Z,100064.55
2023-03-24T00:29:11.084Z,100060.61
2023-03-24T00:31:40.564Z,100061.23
2023-03-24T00:34:09.241Z,100063.98
2023-03-24T00:36:39.664Z,100066.25
2023-03-24T00:39:08.589Z,100070.03
2023-03-24T00:41:47.905Z,100070.87
2023-03-24T00:45:13.207Z,100068.62
2023-03-24T00:48:20.498Z,100066.56
2023-03-24T00:50:49.410Z,100059.95
2023-03-24T00:53:18.183Z,100059.91
2023-03-24T00:55:50.312Z,100060.23
2023-03-24T00:59:15.331Z,100057.25
2023-03-24T01:02:02.985Z,100051.63
2023-03-24T01:04:31.912Z,100046.35
2023-03-24T01:07:00.253Z,100046.41
2023-03-24T01:09:28.839Z,100041.17
2023-03-24T01:11:58.872Z,100039.70
2023-03-24T01:14:27.646Z,100038.43
2023-03-24T01:18:13.648Z,100039.65
2023-03-24T01:21:18.464Z,100035.73
2023-03-24T01:23:47.108Z,100032.84
2023-03-24T01:26:16.256Z,100031.16
2023-03-24T01:28:44.448Z,100032.54
2023-03-24T01:31:13.002Z,100035.02
2023-03-24T01:33:41.291Z,100036.23
2023-03-24T01:36:10.474Z,100038.47
2023-03-24T01:38:38.827Z,100042.44
2023-03-24T01:41:07.702Z,100041.77
2023-03-24T01:43:36.655Z,100037.67
2023-03-24T01:46:18.891Z,100037.27
2023-03-24T01:49:08.138Z,100031.05
2023-03-24T01:51:40.893Z,100033.00
2023-03-24T01:54:17.168Z,100032.42
2023-03-24T01:56:49.437Z,100029.05
2023-03-24T01:59:21.000Z,100030.48
2023-03-24T02:02:04.238Z,100030.86
2023-03-24T02:04:44.958Z,100026.17
2023-03-24T02:07:48.274Z,100025.09
2023-03-24T02:10:18.230Z,100023.92
2023-03-24T02:12:46.734Z,100029.99
2023-03-24T02:15:17.654Z,100035.46
2023-03-24T02:17:54.790Z,100044.55
2023-03-24T02:20:39.385Z,100046.55
2023-03-24T02:23:41.655Z,100041.81
2023-03-24T02:26:29.496Z,100051.50
2023-03-24T02:29:06.674Z,100062.01
2023-03-24T02:32:00.492Z,100061.70
2023-03-24T02:34:30.698Z,100067.88
2023-03-24T02:37:18.895Z,100064.02
2023-03-24T02:40:08.921Z,100066.45
2023-03-24T02:42:57.256Z,100063.71
2023-03-24T02:45:32.705Z,100060.54
2023-03-24T02:48:09.221Z,100063.95
2023-03-24T02:51:05.108Z,100067.38
2023-03-24T02:53:56.111Z,100066.35
2023-03-24T02:56:58.688Z,100058.84
2023-03-24T02:59:49.585Z,100066.81
2023-03-24T03:02:47.275Z,100070.31
2023-03-24T03:05:22.698Z,100069.35
2023-03-24T03:07:51.689Z,100070.57
2023-03-24T03:10:29.961Z,100075.33
2023-03-24T03:13:02.786Z,100080.27
2023-03-24T03:15:43.413Z,100074.84
2023-03-24T03:18:16.644Z,100071.48
2023-03-24T03:20:54.922Z,100076.74
2023-03-24T03:23:31.538Z,100078.33
2023-03-24T03:26:06.201Z,100077.05
2023-03-24T03:28:38.222Z,100075.55
2023-03-24T03:31:08.538Z,100071.91
2023-03-24T03:34:06.441Z,100073.34
2023-03-24T03:36:38.606Z,100071.55
2023-03-24T03:39:16.286Z,100067.21
2023-03-24T03:41:45.694Z,100068.38
2023-03-24T03:44:14.385Z,100073.95
2023-03-24T03:46:43.195Z,100073.89
2023-03-24T03:49:13.287Z,100073.56
2023-03-24T03:51:47.914Z,100079.80
2023-03-24T03:54:17.881Z,100082.99
2023-03-24T03:56:48.622Z,100084.76
2023-03-24T03:59:25.653Z,100085.29
2023-03-24T04:01:54.662Z,100093.39
2023-03-24T04:06:18.012Z,100092.57
2023-03-24T04:08:48.247Z,100087.55
2023-03-24T04:11:30.129Z,100089.41
2023-03-24T04:14:31.994Z,100094.41
2023-03-24T04:17:32.857Z,100092.98
2023-03-24T04:20:24.561Z,100087.27
2023-03-24T04:22:54.317Z,100097.20
2023-03-24T04:25:42.472Z,100103.34
2023-03-24T04:28:20.425Z,100103.10
2023-03-24T04:30:52.593Z,100108.84
2023-03-24T04:33:30.704Z,100104.45
2023-03-24T04:36:18.376Z,100106.77
2023-03-24T04:39:06.775Z,100105.80
2023-03-24T04:41:44.219Z,100110.16
2023-03-24T04:44:22.193Z,100106.84
2023-03-24T04:47:09.187Z,100108.76
2023-03-24T04:49:40.034Z,100111.98
2023-03-24T04:52:09.529Z,100115.83
2023-03-24T04:54:38.707Z,100115.34
2023-03-24T04:57:07.896Z,100119.66
2023-03-24T04:59:46.356Z,100120.96
2023-03-24T05:02:15.857Z,100122.90
2023-03-24T05:04:51.274Z,100128.01
2023-03-24T05:07:27.450Z,100128.23
2023-03-24T05:10:00.661Z,100128.14
2023-03-24T05:12:38.389Z,100134.06
2023-03-24T05:15:18.598Z,100139.11
2023-03-24T05:17:48.325Z,100145.67
2023-03-24T05:20:20.997Z,100142.55
2023-03-24T05:22:50.905Z,100141.80
2023-03-24T05:25:20.213Z,100140.48
2023-03-24T05:27:49.285Z,100140.85
2023-03-24T05:30:21.705Z,100140.13
2023-03-24T05:32:52.387Z,100141.04
2023-03-24T05:35:20.757Z,100138.40
2023-03-24T05:37:49.928Z,100136.30
2023-03-24T05:40:18.532Z,100137.52
2023-03-24T05:42:54.019Z,100137.04
2023-03-24T05:45:30.502Z,100136.64
2023-03-24T05:47:59.693Z,100136.09
2023-03-24T05:50:38.307Z,100136.06
2023-03-24T05:53:07.295Z,100143.79
2023-03-24T05:55:58.929Z,100148.30
2023-03-24T05:58:51.672Z,100147.05
2023-03-24T06:01:20.259Z,100150.33
2023-03-24T06:03:49.844Z,100150.81
2023-03-24T06:06:18.857Z,100149.26
2023-03-24T06:08:54.639Z,100158.14
2023-03-24T06:11:25.039Z,100155.23
2023-03-24T06:14:00.689Z,100153.41
2023-03-24T06:16:39.243Z,100153.64
2023-03-24T06:19:08.407Z,100157.13
2023-03-24T06:21:55.026Z,100159.98
2023-03-24T06:24:29.744Z,100158.71
2023-03-24T06:27:03.669Z,100163.82
2023-03-24T06:29:34.137Z,100167.55
2023-03-24T06:32:02.556Z,100171.41
2023-03-24T06:34:32.479Z,100173.23
2023-03-24T06:37:17.246Z,100167.45
2023-03-24T06:39:45.985Z,100163.67
2023-03-24T06:42:14.868Z,100164.55
2023-03-24T06:44:43.502Z,100160.48
2023-03-24T06:47:12.100Z,100157.05
2023-03-24T06:49:42.277Z,100158.17
2023-03-24T06:52:10.403Z,100151.75
2023-03-24T06:54:45.008Z,100147.42
2023-03-24T06:57:14.649Z,100149.46
2023-03-24T07:00:10.518Z,100152.84
2023-03-24T07:02:50.129Z,100154.23
2023-03-24T07:05:19.231Z,100152.22
2023-03-24T07:10:41.318Z,100151.05
2023-03-24T07:13:09.971Z,100149.91
2023-03-24T07:15:38.560Z,100153.99
2023-03-24T07:18:10.169Z,100157.77
2023-03-24T07:20:54.102Z,100155.70
2023-03-24T07:23:28.229Z,100154.70
2023-03-24T07:26:05.174Z,100153.32
2023-03-24T07:28:48.629Z,100154.25
2023-03-24T07:31:27.181Z,100155.02
2023-03-24T07:34:01.997Z,100155.24
2023-03-24T07:36:30.809Z,100160.04
2023-03-24T07:38:59.449Z,100160.02
2023-03-24T07:41:33.054Z,100156.25
2023-03-24T07:44:04.195Z,100158.86
2023-03-24T07:46:42.613Z,100165.29
2023-03-24T07:49:19.298Z,100166.50
2023-03-24T07:52:00.259Z,100166.06
2023-03-24T07:54:38.363Z,100160.28
2023-03-24T07:57:08.656Z,100167.67
2023-03-24T07:59:40.499Z,100168.81
2023-03-24T08:02:19.809Z,100163.98
2023-03-24T08:04:56.856Z,100166.39
2023-03-24T08:07:42.918Z,100160.55
2023-03-24T08:10:13.497Z,100161.11
2023-03-24T08:12:45.597Z,100159.34
2023-03-24T08:15:14.671Z,100159.94
2023-03-24T08:17:43.390Z,100155.20
2023-03-24T08:20:21.495Z,100159.79
2023-03-24T08:22:50.261Z,100157.55
2023-03-24T08:25:19.344Z,100160.33
2023-03-24T08:27:51.092Z,100158.23
2023-03-24T08:30:21.162Z,100154.52
2023-03-24T08:32:54.214Z,100149.33
2023-03-24T08:35:25.271Z,100146.02
2023-03-24T08:37:53.628Z,100150.64
2023-03-24T08:40:24.460Z,100152.20
2023-03-24T08:43:00.352Z,100152.74
2023-03-24T08:45:30.719Z,100150.89
2023-03-24T08:48:01.486Z,100146.16
2023-03-24T08:50:34.617Z,100142.41
2023-03-24T08:53:04.288Z,100144.58
2023-03-24T08:55:33.265Z,100146.11
2023-03-24T08:58:01.853Z,100145.26
2023-03-24T09:00:30.482Z,100141.81
2023-03-24T09:03:07.774Z,100147.41
2023-03-24T09:05:44.402Z,100148.45
2023-03-24T09:08:23.526Z,100147.39
2023-03-24T09:10:51.911Z,100148.05
2023-03-24T09:13:21.110Z,100149.95
2023-03-24T09:15:52.370Z,100148.63
2023-03-24T09:18:20.932Z,100147.59
2023-03-24T09:20:50.263Z,100147.65
2023-03-24T09:23:19.702Z,100137.80
2023-03-24T09:25:50.737Z,100132.38
2023-03-24T09:28:24.383Z,100127.02
2023-03-24T09:30:59.630Z,100129.61
2023-03-24T09:33:29.722Z,100135.93
2023-03-24T09:36:00.065Z,100134.33
2023-03-24T09:38:30.824Z,100131.73
2023-03-24T09:41:04.301Z,100131.86
2023-03-24T09:43:40.972Z,100134.05
2023-03-24T09:48:37.018Z,100125.78
2023-03-24T09:51:13.608Z,100125.17
2023-03-24T09:54:00.675Z,100119.05
2023-03-24T09:56:30.046Z,100113.06
2023-03-24T09:59:01.207Z,100115.16
2023-03-24T10:01:29.740Z,100111.77
2023-03-24T10:03:59.155Z,100110.59
2023-03-24T10:06:38.656Z,100109.39
2023-03-24T10:09:27.884Z,100105.77
2023-03-24T10:12:04.931Z,100106.45
2023-03-24T10:14:44.910Z,100106.00
2023-03-24T10:17:36.599Z,100106.18
2023-03-24T10:20:24.449Z,100103.80
2023-03-24T10:23:11.161Z,100105.25
2023-03-24T10:25:54.897Z,100099.54
2023-03-24T10:28:26.247Z,100089.45
2023-03-24T10:30:55.962Z,100091.58
2023-03-24T10:33:24.146Z,100090.73
2023-03-24T10:42:48.977Z,100078.97
2023-03-24T10:45:25.144Z,100069.14
2023-03-24T10:47:54.830Z,100069.38
2023-03-24T10:50:27.337Z,100065.05
2023-03-24T10:52:55.965Z,100059.16
2023-03-24T10:55:32.486Z,100055.90
2023-03-24T10:58:00.686Z,100057.56
2023-03-24T11:00:31.801Z,100054.02
2023-03-24T11:03:08.537Z,100045.66
2023-03-24T11:05:38.449Z,100047.65
2023-03-24T11:08:15.166Z,100046.66
2023-03-24T11:10:45.305Z,100043.98
2023-03-24T11:13:23.511Z,100040.92
2023-03-24T11:16:17.204Z,100038.02
2023-03-24T11:19:04.495Z,100037.77
2023-03-24T11:21:35.513Z,100034.15
2023-03-24T11:24:09.616Z,100039.29
2023-03-24T11:26:39.061Z,100037.93
2023-03-24T11:29:30.580Z,100030.41
2023-03-24T11:32:03.498Z,100028.44
2023-03-24T11:34:34.569Z,100024.94
2023-03-24T11:37:04.059Z,100023.57
2023-03-24T11:39:34.303Z,100017.05
2023-03-24T11:42:02.450Z,100013.66
2023-03-24T11:44:45.173Z,100010.90
2023-03-24T11:47:31.143Z,100010.55
2023-03-24T11:50:11.493Z,100007.06
2023-03-24T11:52:48.166Z,100006.48
2023-03-24T11:55:18.108Z,100000.02
2023-03-24T11:57:58.209Z,99998.02
2023-03-24T12:00:36.126Z,99996.81
2023-03-24T12:03:26.630Z,99990.38
2023-03-24T12:06:28.318Z,99982.42
2023-03-24T12:08:59.348Z,99980.23
2023-03-24T12:11:55.031Z,99975.11
2023-03-24T12:14:35.062Z,99968.23
2023-03-24T12:17:14.717Z,99980.63
2023-03-24T12:19:52.313Z,99978.25
2023-03-24T12:22:56.005Z,99974.27
2023-03-24T12:25:46.088Z,99969.92
2023-03-24T12:28:23.724Z,99975.13
2023-03-24T12:31:19.596Z,99974.66
2023-03-24T12:34:25.369Z,99970.45
2023-03-24T12:37:07.936Z,99965.45
2023-03-24T12:39:45.619Z,99974.25
2023-03-24T12:42:14.597Z,99969.17
2023-03-24T12:44:48.370Z,99966.44
2023-03-24T12:47:19.674Z,99965.18
2023-03-24T12:49:54.474Z,99965.11
2023-03-24T12:52:38.851Z,99967.27
2023-03-24T12:55:14.390Z,99961.34
2023-03-24T12:57:48.840Z,99953.40
2023-03-24T13:00:23.365Z,99952.41
2023-03-24T13:02:53.293Z,99947.94
2023-03-24T13:05:24.390Z,99947.39
2023-03-24T13:07:54.721Z,99945.77
2023-03-24T13:10:26.031Z,99940.73
2023-03-24T13:13:00.860Z,99941.92
2023-03-24T13:15:34.983Z,99940.56
2023-03-24T13:18:09.708Z,99935.39
2023-03-24T13:20:51.055Z,99937.74
2023-03-24T13:23:28.448Z,99937.50
2023-03-24T13:25:56.611Z,99931.63
2023-03-24T13:28:35.702Z,99930.30
2023-03-24T13:31:03.828Z,99929.98
2023-03-24T13:33:32.421Z,99932.33
2023-03-24T13:36:45.233Z,99928.95
2023-03-24T13:39:20.524Z,99914.46
2023-03-24T13:41:56.333Z,99911.45
2023-03-24T13:44:26.415Z,99912.83
2023-03-24T13:47:10.158Z,99911.36
2023-03-24T13:49:40.812Z,99909.29
2023-03-24T13:52:46.039Z,99907.00
2023-03-24T13:55:18.710Z,99917.44
2023-03-24T13:58:01.778Z,99913.38
2023-03-24T14:00:34.127Z,99910.80
2023-03-24T14:03:06.149Z,99906.33
2023-03-24T14:05:42.166Z,99905.36
2023-03-24T14:08:11.627Z,99902.96
2023-03-24T14:10:42.977Z,99903.51
2023-03-24T14:13:14.105Z,99908.59
2023-03-24T14:15:54.237Z,99909.84
2023-03-24T14:18:26.097Z,99904.89
2023-03-24T14:20:58.474Z,99905.30
2023-03-24T14:23:38.773Z,99908.38
2023-03-24T14:26:19.762Z,99903.21
2023-03-24T14:28:48.870Z,99900.55
2023-03-24T14:31:24.511Z,99900.37
2023-03-24T14:33:52.911Z,99898.52
2023-03-24T14:36:31.012Z,99898.42
2023-03-24T14:39:13.804Z,99890.80
2023-03-24T14:41:42.205Z,99887.05
2023-03-24T14:44:11.573Z,99886.57
2023-03-24T14:46:48.228Z,99885.56
2023-03-24T14:49:24.824Z,99883.21
2023-03-24T14:52:29.080Z,99878.43
2023-03-24T14:55:06.054Z,99877.27
2023-03-24T14:57:41.961Z,99872.20
2023-03-24T15:00:32.420Z,99873.23
2023-03-24T15:03:12.091Z,99870.37
2023-03-24T15:05:40.627Z,99872.02
2023-03-24T15:08:18.514Z,99869.52
2023-03-24T15:10:47.537Z,99868.55
2023-03-24T15:13:49.656Z,99873.11
2023-03-24T15:16:21.132Z,99866.25
2023-03-24T15:19:02.374Z,99861.56
2023-03-24T15:21:34.995Z,99862.35
2023-03-24T15:24:22.260Z,99862.56
2023-03-24T15:26:53.462Z,99866.33
2023-03-24T15:29:21.929Z,99863.88
2023-03-24T15:31:50.277Z,99866.95
2023-03-24T15:34:31.593Z,99874.52
2023-03-24T15:37:05.524Z,99874.92
2023-03-24T15:39:39.489Z,99876.47
2023-03-24T15:42:09.675Z,99877.01
2023-03-24T15:44:39.518Z,99878.40
2023-03-24T15:47:16.707Z,99878.55
2023-03-24T15:50:13.746Z,99875.90
2023-03-24T15:52:41.866Z,99871.08
2023-03-24T15:55:34.923Z,99874.45
2023-03-24T15:58:24.226Z,99873.48
2023-03-24T16:00:53.318Z,99873.86
2023-03-24T16:03:26.615Z,99876.42
2023-03-24T16:05:56.293Z,99883.52
2023-03-24T16:08:35.861Z,99882.73
2023-03-24T16:11:11.181Z,99884.08
2023-03-24T16:13:47.684Z,99884.68
2023-03-24T16:16:24.863Z,99887.30
2023-03-24T16:18:53.760Z,99888.33
2023-03-24T16:21:22.174Z,99890.31
2023-03-24T16:23:53.709Z,99891.05
2023-03-24T16:26:26.374Z,99892.51
2023-03-24T16:29:14.416Z,99892.30
2023-03-24T16:31:44.298Z,99894.70
2023-03-24T16:34:12.387Z,99894.72
2023-03-24T16:36:40.444Z,99891.77
2023-03-24T16:39:15.955Z,99894.97
2023-03-24T16:41:46.804Z,99894.52
2023-03-24T16:44:17.505Z,99894.98
2023-03-24T16:46:46.884Z,99895.88
2023-03-24T16:49:17.137Z,99896.23
2023-03-24T16:51:45.773Z,99896.20
2023-03-24T16:54:15.115Z,99896.57
2023-03-24T16:56:44.209Z,99901.04
2023-03-24T16:59:15.050Z,99899.49
2023-03-24T17:01:46.344Z,99898.79
2023-03-24T17:04:20.111Z,99899.72
2023-03-24T17:06:52.972Z,99899.79
2023-03-24T17:09:23.080Z,99898.99
2023-03-24T17:11:56.197Z,99891.23
2023-03-24T17:14:24.850Z,99889.57
2023-03-24T17:16:54.229Z,99888.90
2023-03-24T17:22:38.473Z,99893.02
2023-03-24T17:25:13.337Z,99894.75
2023-03-24T17:27:41.745Z,99896.98
2023-03-24T17:30:18.323Z,99900.35
2023-03-24T17:32:48.065Z,99896.71
2023-03-24T17:35:22.052Z,99894.71
2023-03-24T17:37:51.394Z,99899.32
2023-03-24T17:40:20.503Z,99900.17
2023-03-24T17:42:52.116Z,99904.20
2023-03-24T17:45:21.266Z,99905.67
2023-03-24T17:47:55.558Z,99899.74
2023-03-24T17:50:38.516Z,99898.04
2023-03-24T17:53:10.597Z,99899.09
2023-03-24T17:55:39.395Z,99895.61
2023-03-24T17:58:08.922Z,99896.83
2023-03-24T18:00:41.536Z,99896.27
2023-03-24T18:03:11.399Z,99898.64
2023-03-24T18:05:44.983Z,99899.23
2023-03-24T18:08:13.162Z,99898.48
2023-03-24T18:10:41.201Z,99896.16
2023-03-24T18:13:15.443Z,99894.42
2023-03-24T18:15:43.631Z,99894.59
2023-03-24T18:18:18.253Z,99897.77
2023-03-24T18:20:53.110Z,99900.73
2023-03-24T18:23:23.646Z,99905.62
2023-03-24T18:26:03.898Z,99906.57
2023-03-24T18:28:38.952Z,99909.70
2023-03-24T18:31:16.282Z,99914.90
2023-03-24T18:33:46.245Z,99915.41
2023-03-24T18:36:18.473Z,99913.84
2023-03-24T18:38:47.891Z,99912.39
2023-03-24T18:41:18.632Z,99914.36
2023-03-24T18:43:48.315Z,99913.50
2023-03-24T18:46:22.065Z,99910.97
2023-03-24T18:48:53.219Z,99907.95
2023-03-24T18:51:21.690Z,99906.67
2023-03-24T18:53:50.296Z,99904.67
2023-03-24T18:56:18.910Z,99906.73
2023-03-24T18:58:48.720Z,99912.35
2023-03-24T19:01:23.127Z,99913.95
2023-03-24T19:03:52.400Z,99911.24
2023-03-24T19:06:21.661Z,99907.52
2023-03-24T19:08:51.112Z,99905.38
2023-03-24T19:11:19.390Z,99904.49
2023-03-24T19:13:50.670Z,99904.38
2023-03-24T19:16:19.618Z,99902.06
2023-03-24T19:18:48.730Z,99903.41
2023-03-24T19:21:19.837Z,99904.54
2023-03-24T19:23:49.948Z,99906.38
2023-03-24T19:26:22.571Z,99906.36
2023-03-24T19:28:53.319Z,99902.85
2023-03-24T19:31:21.630Z,99900.60
2023-03-24T19:33:51.706Z,99900.25
2023-03-24T19:36:19.959Z,99898.02
2023-03-24T19:38:48.008Z,99902.89
2023-03-24T19:41:16.366Z,99897.55
2023-03-24T19:43:47.616Z,99901.13
2023-03-24T19:46:22.049Z,99903.73
2023-03-24T19:48:50.767Z,99904.35
2023-03-24T19:51:32.817Z,99898.75
2023-03-24T19:54:01.177Z,99897.74
2023-03-24T19:56:29.640Z,99897.17
2023-03-24T19:58:57.933Z,99896.40
2023-03-24T20:01:26.434Z,99893.60
2023-03-24T20:03:54.700Z,99893.28
2023-03-24T20:06:23.295Z,99888.36
2023-03-24T20:08:51.822Z,99884.70
2023-03-24T20:11:19.985Z,99884.84
2023-03-24T20:13:48.395Z,99880.05
2023-03-24T20:16:17.802Z,99881.79
2023-03-24T20:18:45.987Z,99874.88
2023-03-24T20:21:19.032Z,99870.86
2023-03-24T20:23:47.458Z,99870.98
2023-03-24T20:26:21.929Z,99875.16
2023-03-24T20:28:51.347Z,99872.39
2023-03-24T20:31:19.720Z,99867.79
2023-03-24T20:33:49.208Z,99862.17
2023-03-24T20:36:17.511Z,99859.02
2023-03-24T20:38:45.899Z,99853.26
2023-03-24T20:41:14.058Z,99848.33
2023-03-24T20:43:42.680Z,99847.44
2023-03-24T20:46:17.347Z,99848.79
2023-03-24T20:48:46.312Z,99849.59
2023-03-24T20:51:14.751Z,99848.66
2023-03-24T20:53:44.955Z,99846.65
2023-03-24T20:56:15.212Z,99844.81
2023-03-24T20:58:48.023Z,99844.91
2023-03-24T21:01:24.069Z,99840.55
2023-03-24T21:03:52.885Z,99844.52
2023-03-24T21:06:21.191Z,99849.42
2023-03-24T21:08:49.480Z,99851.67
2023-03-24T21:11:20.852Z,99849.77
2023-03-24T21:13:49.278Z,99846.73
2023-03-24T21:16:19.741Z,99844.82
2023-03-24T21:18:51.416Z,99846.08
2023-03-24T21:21:20.587Z,99841.27
2023-03-24T21:23:48.769Z,99841.83
2023-03-24T21:26:18.303Z,99835.36
2023-03-24T21:28:47.192Z,99834.55
2023-03-24T21:31:24.168Z,99831.77
2023-03-24T21:33:52.903Z,99831.09
2023-03-24T21:36:21.412Z,99828.20
2023-03-24T21:38:50.060Z,99831.29
2023-03-24T21:41:18.808Z,99825.45
2023-03-24T21:43:51.233Z,99826.98
2023-03-24T21:46:26.458Z,99821.92
2023-03-24T21:48:59.596Z,99826.86
2023-03-24T21:51:37.009Z,99827.63
2023-03-24T21:54:15.176Z,99827.87
2023-03-24T21:56:44.139Z,99832.94
2023-03-24T21:59:12.952Z,99831.88
2023-03-24T22:01:42.892Z,99830.38
2023-03-24T22:04:11.243Z,99827.11
2023-03-24T22:06:40.144Z,99827.74
2023-03-24T22:09:10.466Z,99824.27
2023-03-24T22:11:43.018Z,99820.14
2023-03-24T22:14:18.986Z,99814.70
2023-03-24T22:16:47.438Z,99809.83
2023-03-24T22:19:15.776Z,99807.73
2023-03-24T22:21:44.067Z,99804.23
2023-03-24T22:24:12.591Z,99804.41
2023-03-24T22:26:40.671Z,99801.77
2023-03-24T22:29:12.987Z,99807.09
2023-03-24T22:31:43.637Z,99806.60
2023-03-24T22:34:14.001Z,99806.38
2023-03-24T22:36:43.475Z,99800.11
2023-03-24T22:39:11.816Z,99797.73
2023-03-24T22:41:44.038Z,99793.48
2023-03-24T22:44:12.403Z,99791.00
2023-03-24T22:46:40.731Z,99784.10
2023-03-24T22:49:09.637Z,99780.79
2023-03-24T22:51:37.822Z,99777.35
2023-03-24T22:54:06.640Z,99771.98
2023-03-24T22:56:35.449Z,99764.56
2023-03-24T23:11:12.440Z,99745.60
2023-03-24T23:14:06.301Z,99741.27
2023-03-24T23:16:35.848Z,99745.07
2023-03-24T23:19:09.728Z,99742.94
2023-03-24T23:21:39.570Z,99738.62
2023-03-24T23:24:08.006Z,99735.50
2023-03-24T23:26:36.914Z,99733.63
2023-03-24T23:29:06.112Z,99730.60
2023-03-24T23:31:36.018Z,99730.05
2023-03-24T23:34:07.701Z,99729.77
2023-03-24T23:36:36.064Z,99733.25
2023-03-24T23:39:05.925Z,99734.63
2023-03-24T23:41:36.116Z,99734.64
2023-03-24T23:44:04.383Z,99730.84
2023-03-24T23:46:33.803Z,99730.06
2023-03-24T23:49:02.063Z,99727.94
2023-03-24T23:51:31.556Z,99726.79
2023-03-24T23:53:59.852Z,99724.82
2023-03-24T23:56:36.826Z,99718.29
2023-03-24T23:59:06.247Z,99718.17
